Pep, New Mexico
Current Conditions -  °F | °C
As of 11:58 AM on Sunday 23 Nov 2014 (Local Time) from KCVS Reporting Station
Light Rain Light Rain  
Wind Chill: 41°   Ceiling: Unl
Heat Index: 49°   Visibility: 10mi
Dew Point: 32°   Wind: 25mph
Humidity: 52%   Direction: 30°NNE
Pressure: 29.67"   Gusts: 29mph
Location:  33.84°N, 103.34°W
Report Text: KCVS 231858Z AUTO 03022G25KT 10SM -RA FEW075 09/00 A2967 RMK AO2 PK WND 36031/12 RAB1846 SLP029 P0000 T00921002 $
Loading
Personal Weather Stations






























Interactive Weather Map New forecast layout! Learn more

10-Day Weather Forecast

Advertisements
Track Severe Weather on mobile